Time,TemperatureF,DewpointF,PressureIn,WindDirection,WindDirectionDegrees,WindSpeedMPH,WindSpeedGustMPH,Humidity,HourlyPrecipIn,Conditions,Clouds,dailyrainin,SoftwareType,DateUTC
2013-02-06 00:00:00,32.9,17.6,29.94,NW,312,6.0,6.0,53,0.00,,,0.00,meteohub,2013-02-06 05:00:00,
2013-02-06 00:02:00,32.9,18.1,29.94,NW,314,6.0,6.0,54,0.00,,,0.00,meteohub,2013-02-06 05:02:00,
2013-02-06 00:04:00,32.9,18.1,29.94,NW,309,5.0,6.0,54,0.00,,,0.00,meteohub,2013-02-06 05:04:00,
2013-02-06 00:10:00,33.1,17.8,29.94,WSW,239,6.0,6.0,53,0.00,,,0.00,meteohub,2013-02-06 05:10:00,
2013-02-06 00:15:00,33.1,17.8,29.91,WSW,250,4.0,6.0,53,0.00,,,0.00,meteohub,2013-02-06 05:15:00,
2013-02-06 00:20:00,33.1,17.8,29.91,NW,311,6.0,8.0,53,0.00,,,0.00,meteohub,2013-02-06 05:20:00,
2013-02-06 00:26:00,33.1,18.3,29.91,WNW,302,4.0,8.0,54,0.00,,,0.00,meteohub,2013-02-06 05:26:00,
2013-02-06 00:31:00,33.1,18.3,29.91,West,270,4.0,8.0,54,0.00,,,0.00,meteohub,2013-02-06 05:31:00,
2013-02-06 00:36:00,33.3,18.5,29.91,SW,231,4.0,8.0,54,0.00,,,0.00,meteohub,2013-02-06 05:36:00,
2013-02-06 00:41:00,33.3,18.5,29.91,West,270,4.0,6.0,54,0.00,,,0.00,meteohub,2013-02-06 05:41:00,
2013-02-06 00:46:00,33.3,18.5,29.91,West,274,4.0,6.0,54,0.00,,,0.00,meteohub,2013-02-06 05:46:00,
2013-02-06 00:52:00,33.3,18.5,29.91,NW,308,5.0,6.0,54,0.00,,,0.00,meteohub,2013-02-06 05:52:00,
2013-02-06 00:57:00,33.3,18.5,29.91,NW,307,3.0,6.0,54,0.00,,,0.00,meteohub,2013-02-06 05:57:00,
2013-02-06 01:02:00,33.3,18.5,29.91,WNW,302,3.0,6.0,54,0.00,,,0.00,meteohub,2013-02-06 06:02:00,
2013-02-06 01:07:00,33.1,18.3,29.91,WNW,291,4.0,6.0,54,0.00,,,0.00,meteohub,2013-02-06 06:07:00,
2013-02-06 01:12:00,32.9,18.1,29.91,WNW,299,5.0,5.0,54,0.00,,,0.00,meteohub,2013-02-06 06:12:00,
2013-02-06 01:18:00,32.9,18.1,29.91,WNW,290,6.0,6.0,54,0.00,,,0.00,meteohub,2013-02-06 06:18:00,
2013-02-06 01:23:00,33.1,18.3,29.91,West,281,5.0,6.0,54,0.00,,,0.00,meteohub,2013-02-06 06:23:00,
2013-02-06 01:28:00,33.1,18.3,29.91,WNW,288,5.0,6.0,54,0.00,,,0.00,meteohub,2013-02-06 06:28:00,
2013-02-06 01:33:00,33.1,18.3,29.91,West,276,3.0,6.0,54,0.00,,,0.00,meteohub,2013-02-06 06:33:00,
2013-02-06 01:38:00,33.1,18.3,29.91,West,259,4.0,6.0,54,0.00,,,0.00,meteohub,2013-02-06 06:38:00,
2013-02-06 01:44:00,33.1,18.3,29.91,West,266,4.0,6.0,54,0.00,,,0.00,meteohub,2013-02-06 06:44:00,
2013-02-06 01:49:00,33.3,18.5,29.91,WNW,291,4.0,4.0,54,0.00,,,0.00,meteohub,2013-02-06 06:49:00,
2013-02-06 01:54:00,33.3,18.5,29.91,West,260,3.0,5.0,54,0.00,,,0.00,meteohub,2013-02-06 06:54:00,
2013-02-06 01:59:00,33.6,18.7,29.91,SW,220,3.0,5.0,54,0.00,,,0.00,meteohub,2013-02-06 06:59:00,
2013-02-06 02:04:00,33.8,19.4,29.91,SSW,204,4.0,8.0,55,0.00,,,0.00,meteohub,2013-02-06 07:04:00,
2013-02-06 02:10:00,33.8,19.4,29.91,SW,222,7.0,8.0,55,0.00,,,0.00,meteohub,2013-02-06 07:10:00,
2013-02-06 02:15:00,33.8,19.4,29.91,West,274,4.0,8.0,55,0.00,,,0.00,meteohub,2013-02-06 07:15:00,
2013-02-06 02:20:00,34.0,19.6,29.91,WNW,300,4.0,8.0,55,0.00,,,0.00,meteohub,2013-02-06 07:20:00,
2013-02-06 02:25:00,34.0,19.6,29.91,WNW,286,4.0,7.0,55,0.00,,,0.00,meteohub,2013-02-06 07:25:00,
2013-02-06 02:31:00,34.0,19.6,29.91,WSW,242,4.0,8.0,55,0.00,,,0.00,meteohub,2013-02-06 07:31:00,
2013-02-06 02:36:00,34.2,19.8,29.91,WNW,292,5.0,8.0,55,0.00,,,0.00,meteohub,2013-02-06 07:36:00,
2013-02-06 02:41:00,34.0,19.6,29.91,West,271,5.0,8.0,55,0.00,,,0.00,meteohub,2013-02-06 07:41:00,
2013-02-06 02:46:00,33.8,19.4,29.91,WNW,284,5.0,6.0,55,0.00,,,0.00,meteohub,2013-02-06 07:46:00,
2013-02-06 02:51:00,33.8,19.4,29.91,WNW,286,4.0,6.0,55,0.00,,,0.00,meteohub,2013-02-06 07:51:00,
2013-02-06 02:56:00,33.8,19.4,29.91,West,262,4.0,6.0,55,0.00,,,0.00,meteohub,2013-02-06 07:56:00,
2013-02-06 03:02:00,34.0,19.6,29.91,WSW,241,4.0,5.0,55,0.00,,,0.00,meteohub,2013-02-06 08:02:00,
2013-02-06 03:07:00,34.0,19.6,29.91,SW,228,5.0,5.0,55,0.00,,,0.00,meteohub,2013-02-06 08:07:00,
2013-02-06 03:12:00,34.0,19.6,29.91,WSW,257,4.0,6.0,55,0.00,,,0.00,meteohub,2013-02-06 08:12:00,
2013-02-06 03:17:00,34.0,19.6,29.91,WSW,254,5.0,6.0,55,0.00,,,0.00,meteohub,2013-02-06 08:17:00,
2013-02-06 03:22:00,34.0,19.6,29.91,West,262,5.0,6.0,55,0.00,,,0.00,meteohub,2013-02-06 08:22:00,
2013-02-06 03:27:00,34.2,19.8,29.91,WSW,246,4.0,6.0,55,0.00,,,0.00,meteohub,2013-02-06 08:27:00,
2013-02-06 03:32:00,34.2,19.8,29.91,WSW,253,4.0,6.0,55,0.00,,,0.00,meteohub,2013-02-06 08:32:00,
2013-02-06 03:37:00,34.3,19.8,29.91,West,262,6.0,6.0,55,0.00,,,0.00,meteohub,2013-02-06 08:37:00,
2013-02-06 03:42:00,34.2,19.8,29.91,West,280,6.0,6.0,55,0.00,,,0.00,meteohub,2013-02-06 08:42:00,
2013-02-06 03:47:00,34.2,19.8,29.91,WSW,255,6.0,6.0,55,0.00,,,0.00,meteohub,2013-02-06 08:47:00,
2013-02-06 03:52:00,34.0,19.6,29.91,WNW,288,4.0,6.0,55,0.00,,,0.00,meteohub,2013-02-06 08:52:00,
2013-02-06 03:57:00,34.0,19.6,29.91,West,265,4.0,6.0,55,0.00,,,0.00,meteohub,2013-02-06 08:57:00,
2013-02-06 04:05:00,33.8,19.4,29.91,West,266,3.0,6.0,55,0.00,,,0.00,meteohub,2013-02-06 09:05:00,
2013-02-06 04:10:00,33.8,19.4,29.91,WNW,297,4.0,6.0,55,0.00,,,0.00,meteohub,2013-02-06 09:10:00,
2013-02-06 04:16:00,33.8,19.4,29.91,West,263,3.0,5.0,55,0.00,,,0.00,meteohub,2013-02-06 09:16:00,
2013-02-06 04:21:00,34.0,19.6,29.91,West,264,4.0,5.0,55,0.00,,,0.00,meteohub,2013-02-06 09:21:00,
2013-02-06 04:26:00,34.0,19.6,29.91,WSW,245,4.0,5.0,55,0.00,,,0.00,meteohub,2013-02-06 09:26:00,
2013-02-06 04:31:00,34.2,20.1,29.91,WSW,238,5.0,5.0,56,0.00,,,0.00,meteohub,2013-02-06 09:31:00,
2013-02-06 04:36:00,34.3,20.3,29.91,SW,232,4.0,6.0,56,0.00,,,0.00,meteohub,2013-02-06 09:36:00,
2013-02-06 04:42:00,34.3,20.3,29.91,WSW,245,3.0,6.0,56,0.00,,,0.00,meteohub,2013-02-06 09:42:00,
2013-02-06 04:47:00,34.3,20.3,29.94,West,261,5.0,6.0,56,0.00,,,0.00,meteohub,2013-02-06 09:47:00,
2013-02-06 04:52:00,34.3,19.8,29.94,West,274,3.0,6.0,55,0.00,,,0.00,meteohub,2013-02-06 09:52:00,
2013-02-06 04:57:00,34.3,19.8,29.94,West,260,2.0,6.0,55,0.00,,,0.00,meteohub,2013-02-06 09:57:00,
2013-02-06 05:02:00,34.3,20.3,29.94,WSW,257,4.0,6.0,56,0.00,,,0.00,meteohub,2013-02-06 10:02:00,
2013-02-06 05:07:00,34.3,20.3,29.94,West,267,4.0,5.0,56,0.00,,,0.00,meteohub,2013-02-06 10:07:00,
2013-02-06 05:12:00,34.3,20.3,29.94,WSW,237,3.0,6.0,56,0.00,,,0.00,meteohub,2013-02-06 10:12:00,
2013-02-06 05:17:00,34.3,20.3,29.94,WSW,252,4.0,6.0,56,0.00,,,0.00,meteohub,2013-02-06 10:17:00,
2013-02-06 05:23:00,34.3,20.3,29.94,WSW,251,3.0,6.0,56,0.00,,,0.00,meteohub,2013-02-06 10:23:00,
2013-02-06 05:28:00,34.5,20.5,29.94,WSW,240,3.0,6.0,56,0.00,,,0.00,meteohub,2013-02-06 10:28:00,
2013-02-06 05:33:00,34.7,20.7,29.94,WSW,256,3.0,6.0,56,0.00,,,0.00,meteohub,2013-02-06 10:33:00,
2013-02-06 05:39:00,34.7,20.7,29.94,West,272,5.0,6.0,56,0.00,,,0.00,meteohub,2013-02-06 10:39:00,
2013-02-06 05:44:00,34.7,20.7,29.94,WSW,246,5.0,6.0,56,0.00,,,0.00,meteohub,2013-02-06 10:44:00,
2013-02-06 05:49:00,34.9,20.8,29.94,WSW,243,3.0,6.0,56,0.00,,,0.00,meteohub,2013-02-06 10:49:00,
2013-02-06 05:54:00,34.9,20.8,29.94,WSW,242,3.0,6.0,56,0.00,,,0.00,meteohub,2013-02-06 10:54:00,
2013-02-06 06:00:00,34.9,20.8,29.94,West,277,4.0,6.0,56,0.00,,,0.00,meteohub,2013-02-06 11:00:00,
2013-02-06 06:05:00,34.9,20.8,29.94,West,259,4.0,6.0,56,0.00,,,0.00,meteohub,2013-02-06 11:05:00,
2013-02-06 06:10:00,34.9,20.8,29.94,West,259,0.0,5.0,56,0.00,,,0.00,meteohub,2013-02-06 11:10:00,
2013-02-06 06:15:00,34.9,20.8,29.97,SW,226,2.0,5.0,56,0.00,,,0.00,meteohub,2013-02-06 11:15:00,
2013-02-06 06:21:00,34.9,20.8,29.97,SW,224,0.0,4.0,56,0.00,,,0.00,meteohub,2013-02-06 11:21:00,
2013-02-06 06:26:00,34.9,20.8,29.97,SW,224,0.0,4.0,56,0.00,,,0.00,meteohub,2013-02-06 11:26:00,
2013-02-06 06:31:00,34.9,20.8,29.97,SW,223,0.0,3.0,56,0.00,,,0.00,meteohub,2013-02-06 11:31:00,
2013-02-06 06:37:00,34.7,20.7,29.97,SW,223,0.0,0.0,56,0.00,,,0.00,meteohub,2013-02-06 11:37:00,
2013-02-06 06:42:00,34.5,20.5,29.97,SW,223,0.0,0.0,56,0.00,,,0.00,meteohub,2013-02-06 11:42:00,
2013-02-06 06:47:00,34.5,20.5,29.97,SW,224,0.0,0.0,56,0.00,,,0.00,meteohub,2013-02-06 11:47:00,
2013-02-06 06:53:00,34.5,20.5,29.97,SW,224,0.0,0.0,56,0.00,,,0.00,meteohub,2013-02-06 11:53:00,
2013-02-06 06:58:00,34.5,20.5,29.97,SW,223,0.0,3.0,56,0.00,,,0.00,meteohub,2013-02-06 11:58:00,
2013-02-06 07:03:00,34.5,20.5,29.97,SW,224,0.0,3.0,56,0.00,,,0.00,meteohub,2013-02-06 12:03:00,
2013-02-06 07:09:00,34.7,20.7,29.97,SW,224,0.0,2.0,56,0.00,,,0.00,meteohub,2013-02-06 12:09:00,
2013-02-06 07:14:00,34.7,20.7,29.97,SW,224,0.0,0.0,56,0.00,,,0.00,meteohub,2013-02-06 12:14:00,
2013-02-06 07:19:00,34.7,20.7,29.97,SW,223,0.0,0.0,56,0.00,,,0.00,meteohub,2013-02-06 12:19:00,
2013-02-06 07:24:00,34.7,20.7,29.97,SW,223,0.0,0.0,56,0.00,,,0.00,meteohub,2013-02-06 12:24:00,
2013-02-06 07:30:00,34.7,20.7,29.97,SSW,199,3.0,0.0,56,0.00,,,0.00,meteohub,2013-02-06 12:30:00,
2013-02-06 07:35:00,34.9,20.8,29.97,SSW,196,3.0,0.0,56,0.00,,,0.00,meteohub,2013-02-06 12:35:00,
2013-02-06 07:40:00,34.9,20.8,29.97,SSW,196,4.0,4.0,56,0.00,,,0.00,meteohub,2013-02-06 12:40:00,
2013-02-06 07:46:00,34.9,20.8,30.00,SSW,204,4.0,4.0,56,0.00,,,0.00,meteohub,2013-02-06 12:46:00,
2013-02-06 07:51:00,35.1,21.0,30.00,SW,226,4.0,4.0,56,0.00,,,0.00,meteohub,2013-02-06 12:51:00,
2013-02-06 07:56:00,35.1,21.0,30.00,SSW,203,3.0,5.0,56,0.00,,,0.00,meteohub,2013-02-06 12:56:00,
2013-02-06 08:02:00,35.4,21.7,30.00,SW,214,3.0,5.0,57,0.00,,,0.00,meteohub,2013-02-06 13:02:00,
2013-02-06 08:07:00,35.8,22.1,30.00,SW,229,3.0,5.0,57,0.00,,,0.00,meteohub,2013-02-06 13:07:00,
2013-02-06 08:12:00,35.8,22.1,30.00,SW,230,4.0,5.0,57,0.00,,,0.00,meteohub,2013-02-06 13:12:00,
2013-02-06 08:17:00,35.8,22.1,30.00,SW,227,4.0,5.0,57,0.00,,,0.00,meteohub,2013-02-06 13:17:00,
2013-02-06 08:22:00,36.0,22.3,30.00,SW,219,2.0,6.0,57,0.00,,,0.00,meteohub,2013-02-06 13:22:00,
2013-02-06 08:27:00,36.1,22.5,30.00,WSW,241,4.0,6.0,57,0.00,,,0.00,meteohub,2013-02-06 13:27:00,
2013-02-06 08:32:00,36.3,22.5,30.00,SW,223,6.0,6.0,57,0.00,,,0.00,meteohub,2013-02-06 13:32:00,
2013-02-06 08:37:00,36.3,22.5,30.00,SW,225,3.0,6.0,57,0.00,,,0.00,meteohub,2013-02-06 13:37:00,
2013-02-06 08:42:00,36.3,23.0,30.00,SW,228,5.0,6.0,58,0.00,,,0.00,meteohub,2013-02-06 13:42:00,
2013-02-06 08:48:00,36.5,22.6,30.00,SW,221,4.0,6.0,57,0.00,,,0.00,meteohub,2013-02-06 13:48:00,
2013-02-06 08:53:00,36.7,22.8,30.00,SW,221,3.0,6.0,57,0.00,,,0.00,meteohub,2013-02-06 13:53:00,
2013-02-06 08:58:00,36.7,22.8,30.00,SW,221,3.0,5.0,57,0.00,,,0.00,meteohub,2013-02-06 13:58:00,
2013-02-06 09:03:00,36.7,22.8,30.00,SW,232,4.0,5.0,57,0.00,,,0.00,meteohub,2013-02-06 14:03:00,
2013-02-06 09:09:00,36.7,22.8,30.00,SW,214,3.0,5.0,57,0.00,,,0.00,meteohub,2013-02-06 14:09:00,
2013-02-06 09:14:00,36.7,22.8,30.00,SSW,204,4.0,5.0,57,0.00,,,0.00,meteohub,2013-02-06 14:14:00,
2013-02-06 09:19:00,36.9,23.0,30.00,SSW,202,4.0,5.0,57,0.00,,,0.00,meteohub,2013-02-06 14:19:00,
2013-02-06 09:24:00,36.5,22.3,30.00,SSW,202,5.0,5.0,56,0.00,,,0.00,meteohub,2013-02-06 14:24:00,
2013-02-06 09:30:00,36.1,21.6,30.00,SW,218,6.0,6.0,55,0.00,,,0.00,meteohub,2013-02-06 14:30:00,
2013-02-06 09:35:00,36.1,21.0,30.00,SW,232,5.0,6.0,54,0.00,,,0.00,meteohub,2013-02-06 14:35:00,
2013-02-06 09:40:00,36.1,20.7,30.00,SSW,208,5.0,6.0,53,0.00,,,0.00,meteohub,2013-02-06 14:40:00,
2013-02-06 09:46:00,35.8,19.9,30.03,SSW,201,4.0,6.0,52,0.00,,,0.00,meteohub,2013-02-06 14:46:00,
2013-02-06 09:51:00,35.8,19.4,30.03,SSW,210,5.0,6.0,51,0.00,,,0.00,meteohub,2013-02-06 14:51:00,
2013-02-06 09:56:00,35.8,19.9,30.03,SSW,202,3.0,6.0,52,0.00,,,0.00,meteohub,2013-02-06 14:56:00,
2013-02-06 10:01:00,36.0,20.1,30.03,SSW,198,4.0,6.0,52,0.00,,,0.00,meteohub,2013-02-06 15:01:00,
2013-02-06 10:07:00,36.0,20.1,30.03,SSW,198,4.0,6.0,52,0.00,,,0.00,meteohub,2013-02-06 15:07:00,
2013-02-06 10:12:00,35.8,19.4,30.03,SSW,195,5.0,6.0,51,0.00,,,0.00,meteohub,2013-02-06 15:12:00,
2013-02-06 10:17:00,35.8,19.4,30.03,SSW,194,7.0,7.0,51,0.00,,,0.00,meteohub,2013-02-06 15:17:00,
2013-02-06 10:22:00,35.6,18.9,30.03,South,177,8.0,8.0,50,0.04,,,0.04,meteohub,2013-02-06 15:22:00,
2013-02-06 10:27:00,35.4,18.7,30.03,SSW,197,8.0,8.0,50,0.04,,,0.04,meteohub,2013-02-06 15:27:00,
2013-02-06 10:32:00,35.2,18.0,30.03,SSW,196,8.0,11.0,49,0.04,,,0.04,meteohub,2013-02-06 15:32:00,
2013-02-06 10:37:00,35.1,16.3,30.03,SW,224,10.0,11.0,46,0.04,,,0.04,meteohub,2013-02-06 15:37:00,
2013-02-06 10:42:00,34.9,15.6,30.03,SW,218,5.0,11.0,45,0.04,,,0.04,meteohub,2013-02-06 15:42:00,
2013-02-06 10:47:00,34.5,14.4,30.03,SSW,212,9.0,12.0,43,0.04,,,0.04,meteohub,2013-02-06 15:47:00,
2013-02-06 10:52:00,34.5,13.8,30.03,SSW,205,6.0,12.0,42,0.04,,,0.04,meteohub,2013-02-06 15:52:00,
2013-02-06 10:57:00,34.3,13.6,30.03,SSW,209,6.0,12.0,42,0.04,,,0.04,meteohub,2013-02-06 15:57:00,
2013-02-06 11:02:00,34.3,13.1,30.03,SSW,204,6.0,12.0,41,0.04,,,0.04,meteohub,2013-02-06 16:02:00,
2013-02-06 11:08:00,34.3,13.1,30.03,SSW,200,9.0,11.0,41,0.04,,,0.04,meteohub,2013-02-06 16:08:00,
2013-02-06 11:13:00,34.5,13.3,30.03,SSW,199,6.0,11.0,41,0.04,,,0.04,meteohub,2013-02-06 16:13:00,
2013-02-06 11:18:00,34.7,13.5,30.03,South,179,9.0,11.0,41,0.00,,,0.04,meteohub,2013-02-06 16:18:00,
2013-02-06 11:23:00,35.1,13.6,30.03,SW,235,3.0,11.0,41,0.00,,,0.04,meteohub,2013-02-06 16:23:00,
2013-02-06 11:28:00,35.4,13.5,30.03,South,187,4.0,10.0,40,0.00,,,0.04,meteohub,2013-02-06 16:28:00,
2013-02-06 11:34:00,35.6,13.1,30.00,SSW,194,8.0,9.0,39,0.00,,,0.04,meteohub,2013-02-06 16:34:00,
2013-02-06 11:39:00,35.6,13.1,30.00,South,185,8.0,11.0,39,0.00,,,0.04,meteohub,2013-02-06 16:39:00,
2013-02-06 11:44:00,35.6,12.6,30.00,South,181,8.0,11.0,38,0.00,,,0.04,meteohub,2013-02-06 16:44:00,
2013-02-06 11:49:00,35.6,11.8,30.00,SSW,193,13.0,13.0,37,0.00,,,0.04,meteohub,2013-02-06 16:49:00,
2013-02-06 11:55:00,36.5,12.7,30.00,SSW,192,10.0,12.0,37,0.00,,,0.04,meteohub,2013-02-06 16:55:00,
2013-02-06 12:00:00,37.0,12.6,30.03,South,185,10.0,15.0,36,0.00,,,0.04,meteohub,2013-02-06 17:00:00,
2013-02-06 12:05:00,37.4,11.7,30.03,South,189,13.0,15.0,34,0.00,,,0.04,meteohub,2013-02-06 17:05:00,
2013-02-06 12:10:00,37.4,9.5,30.03,SSW,199,9.0,13.0,31,0.00,,,0.04,meteohub,2013-02-06 17:10:00,
2013-02-06 12:16:00,37.8,10.6,30.03,SW,235,9.0,13.0,32,0.00,,,0.04,meteohub,2013-02-06 17:16:00,
2013-02-06 12:21:00,37.8,9.9,30.03,South,183,9.0,13.0,31,0.00,,,0.04,meteohub,2013-02-06 17:21:00,
2013-02-06 12:26:00,37.6,9.0,30.03,SSW,209,8.0,13.0,30,0.00,,,0.04,meteohub,2013-02-06 17:26:00,
2013-02-06 12:31:00,37.6,9.0,30.03,South,179,11.0,13.0,30,0.00,,,0.04,meteohub,2013-02-06 17:31:00,
2013-02-06 12:37:00,38.5,10.4,30.03,SSE,149,11.0,13.0,31,0.00,,,0.04,meteohub,2013-02-06 17:37:00,
2013-02-06 12:42:00,38.3,10.2,30.03,SSE,147,11.0,13.0,31,0.00,,,0.04,meteohub,2013-02-06 17:42:00,
2013-02-06 12:47:00,38.3,10.2,30.03,South,173,11.0,13.0,31,0.00,,,0.04,meteohub,2013-02-06 17:47:00,
2013-02-06 12:52:00,38.1,10.9,30.03,SSE,161,8.0,13.0,32,0.00,,,0.04,meteohub,2013-02-06 17:52:00,
2013-02-06 12:57:00,38.5,11.1,30.03,SSE,167,8.0,12.0,32,0.00,,,0.04,meteohub,2013-02-06 17:57:00,
2013-02-06 13:02:00,38.5,10.4,30.00,SSE,163,11.0,12.0,31,0.00,,,0.04,meteohub,2013-02-06 18:02:00,
2013-02-06 13:07:00,38.7,11.3,30.00,South,174,9.0,14.0,32,0.00,,,0.04,meteohub,2013-02-06 18:07:00,
2013-02-06 13:12:00,38.3,10.2,30.00,SE,142,11.0,14.0,31,0.00,,,0.04,meteohub,2013-02-06 18:12:00,
2013-02-06 13:17:00,38.8,12.2,30.00,SE,131,8.0,12.0,33,0.00,,,0.04,meteohub,2013-02-06 18:17:00,
2013-02-06 13:22:00,38.8,11.5,30.00,SE,139,7.0,12.0,32,0.00,,,0.04,meteohub,2013-02-06 18:22:00,
2013-02-06 13:27:00,39.4,11.3,30.00,South,171,10.0,12.0,31,0.00,,,0.04,meteohub,2013-02-06 18:27:00,
2013-02-06 13:32:00,39.7,11.5,30.00,SSE,153,11.0,11.0,31,0.00,,,0.04,meteohub,2013-02-06 18:32:00,
2013-02-06 13:37:00,39.0,10.2,30.00,South,175,9.0,13.0,30,0.00,,,0.04,meteohub,2013-02-06 18:37:00,
2013-02-06 13:42:00,38.8,10.8,30.00,SE,146,9.0,13.0,31,0.00,,,0.04,meteohub,2013-02-06 18:42:00,
2013-02-06 13:48:00,39.2,10.4,30.00,South,178,8.0,13.0,30,0.00,,,0.04,meteohub,2013-02-06 18:48:00,
2013-02-06 13:53:00,39.2,10.4,30.00,SSE,163,8.0,13.0,30,0.00,,,0.04,meteohub,2013-02-06 18:53:00,
2013-02-06 13:58:00,39.2,9.7,30.00,SSE,153,14.0,14.0,29,0.00,,,0.04,meteohub,2013-02-06 18:58:00,
2013-02-06 14:03:00,38.8,9.3,30.00,SSE,163,10.0,14.0,29,0.00,,,0.04,meteohub,2013-02-06 19:03:00,
2013-02-06 14:08:00,39.0,9.5,30.00,South,173,13.0,15.0,29,0.00,,,0.04,meteohub,2013-02-06 19:08:00,
2013-02-06 14:14:00,39.7,9.3,30.00,South,175,13.0,15.0,28,0.00,,,0.04,meteohub,2013-02-06 19:14:00,
2013-02-06 14:19:00,39.2,7.2,30.00,SSE,148,11.0,16.0,26,0.00,,,0.04,meteohub,2013-02-06 19:19:00,
2013-02-06 14:24:00,38.7,5.0,30.00,SSE,147,11.0,16.0,24,0.00,,,0.04,meteohub,2013-02-06 19:24:00,
2013-02-06 14:30:00,37.8,8.4,30.03,SSE,165,11.0,15.0,29,0.00,,,0.04,meteohub,2013-02-06 19:30:00,
2013-02-06 14:35:00,37.2,7.9,30.03,South,176,10.0,15.0,29,0.00,,,0.04,meteohub,2013-02-06 19:35:00,
2013-02-06 14:40:00,36.7,7.3,30.03,SSE,158,13.0,14.0,29,0.00,,,0.04,meteohub,2013-02-06 19:40:00,
2013-02-06 14:45:00,36.5,7.2,30.03,SSE,156,11.0,15.0,29,0.00,,,0.04,meteohub,2013-02-06 19:45:00,
2013-02-06 14:50:00,36.1,7.7,30.03,South,174,13.0,15.0,30,0.00,,,0.04,meteohub,2013-02-06 19:50:00,
2013-02-06 14:56:00,35.8,7.3,30.03,South,182,13.0,15.0,30,0.00,,,0.04,meteohub,2013-02-06 19:56:00,
2013-02-06 15:01:00,35.8,7.3,30.03,South,183,10.0,15.0,30,0.00,,,0.04,meteohub,2013-02-06 20:01:00,
2013-02-06 15:06:00,36.0,8.2,30.03,South,182,11.0,15.0,31,0.00,,,0.04,meteohub,2013-02-06 20:06:00,
2013-02-06 15:11:00,35.8,8.1,30.03,South,177,13.0,15.0,31,0.00,,,0.04,meteohub,2013-02-06 20:11:00,
2013-02-06 15:16:00,35.8,8.1,30.03,South,179,12.0,14.0,31,0.00,,,0.04,meteohub,2013-02-06 20:16:00,
2013-02-06 15:22:00,35.6,8.6,30.03,South,169,9.0,14.0,32,0.00,,,0.04,meteohub,2013-02-06 20:22:00,
2013-02-06 15:27:00,35.8,8.8,30.03,South,188,10.0,14.0,32,0.00,,,0.04,meteohub,2013-02-06 20:27:00,
2013-02-06 15:32:00,35.8,8.8,30.03,SSE,168,13.0,15.0,32,0.00,,,0.04,meteohub,2013-02-06 20:32:00,
2013-02-06 15:37:00,36.1,9.1,30.03,South,184,13.0,15.0,32,0.00,,,0.04,meteohub,2013-02-06 20:37:00,
2013-02-06 15:42:00,36.7,9.5,30.03,South,182,8.0,15.0,32,0.00,,,0.04,meteohub,2013-02-06 20:42:00,
2013-02-06 15:47:00,37.0,8.4,30.03,South,191,8.0,14.0,30,0.00,,,0.04,meteohub,2013-02-06 20:47:00,
2013-02-06 15:52:00,37.6,8.2,30.03,SW,214,5.0,14.0,29,0.00,,,0.04,meteohub,2013-02-06 20:52:00,
2013-02-06 15:57:00,36.9,-3.8,30.03,SW,227,4.0,11.0,17,0.00,,,0.04,meteohub,2013-02-06 20:57:00,
2013-02-06 16:02:00,36.9,-8.0,30.06,SSW,205,6.0,11.0,14,0.00,,,0.04,meteohub,2013-02-06 21:02:00,
2013-02-06 16:08:00,36.3,-11.6,30.06,SW,225,5.0,11.0,12,0.00,,,0.04,meteohub,2013-02-06 21:08:00,
2013-02-06 16:13:00,36.3,-11.6,30.06,South,191,5.0,11.0,12,0.00,,,0.04,meteohub,2013-02-06 21:13:00,
2013-02-06 16:18:00,36.5,-11.4,30.06,SSW,210,9.0,13.0,12,0.00,,,0.04,meteohub,2013-02-06 21:18:00,
2013-02-06 16:24:00,36.3,-11.6,30.06,SSW,195,13.0,15.0,12,0.00,,,0.04,meteohub,2013-02-06 21:24:00,
2013-02-06 16:29:00,36.3,-11.6,30.06,SSW,196,11.0,15.0,12,0.00,,,0.04,meteohub,2013-02-06 21:29:00,
2013-02-06 16:34:00,36.1,-11.6,30.06,SW,226,8.0,15.0,12,0.00,,,0.04,meteohub,2013-02-06 21:34:00,
2013-02-06 16:39:00,35.8,-11.9,30.06,South,191,11.0,15.0,12,0.00,,,0.04,meteohub,2013-02-06 21:39:00,
2013-02-06 16:45:00,35.6,-12.1,30.06,SSW,207,8.0,13.0,12,0.00,,,0.04,meteohub,2013-02-06 21:45:00,
2013-02-06 16:50:00,35.4,-12.1,30.06,SSW,203,8.0,11.0,12,0.00,,,0.04,meteohub,2013-02-06 21:50:00,
2013-02-06 16:56:00,34.9,-12.6,30.06,SW,218,6.0,11.0,12,0.00,,,0.04,meteohub,2013-02-06 21:56:00,
2013-02-06 17:01:00,34.5,-12.8,30.09,SSW,209,7.0,11.0,12,0.00,,,0.04,meteohub,2013-02-06 22:01:00,
2013-02-06 17:06:00,34.3,-13.0,30.09,SSW,204,6.0,11.0,12,0.00,,,0.04,meteohub,2013-02-06 22:06:00,
2013-02-06 17:12:00,34.0,-13.4,30.09,SSW,207,4.0,11.0,12,0.00,,,0.04,meteohub,2013-02-06 22:12:00,
2013-02-06 17:17:00,33.6,-12.1,30.09,SSW,201,6.0,8.0,13,0.00,,,0.04,meteohub,2013-02-06 22:17:00,
2013-02-06 17:22:00,33.6,-12.1,30.09,SSW,213,4.0,6.0,13,0.00,,,0.04,meteohub,2013-02-06 22:22:00,
2013-02-06 17:27:00,33.3,-12.3,30.09,SSW,204,5.0,6.0,13,0.00,,,0.04,meteohub,2013-02-06 22:27:00,
2013-02-06 17:32:00,33.1,-12.5,30.09,SSW,210,7.0,7.0,13,0.00,,,0.04,meteohub,2013-02-06 22:32:00,
2013-02-06 17:37:00,32.9,-12.6,30.09,SW,215,9.0,11.0,13,0.00,,,0.04,meteohub,2013-02-06 22:37:00,
2013-02-06 17:42:00,32.9,-12.6,30.09,SSW,200,5.0,11.0,13,0.00,,,0.04,meteohub,2013-02-06 22:42:00,
2013-02-06 17:47:00,32.7,-12.8,30.12,SSW,195,8.0,9.0,13,0.00,,,0.04,meteohub,2013-02-06 22:47:00,
2013-02-06 17:52:00,32.7,-12.8,30.12,SSW,213,11.0,11.0,13,0.00,,,0.04,meteohub,2013-02-06 22:52:00,
2013-02-06 17:57:00,32.7,-12.8,30.12,SSW,207,8.0,11.0,13,0.00,,,0.04,meteohub,2013-02-06 22:57:00,
2013-02-06 18:02:00,32.7,-12.8,30.12,SSW,206,8.0,11.0,13,0.00,,,0.04,meteohub,2013-02-06 23:02:00,
2013-02-06 18:07:00,32.5,-12.8,30.12,SSW,206,5.0,11.0,13,0.00,,,0.04,meteohub,2013-02-06 23:07:00,
2013-02-06 18:12:00,32.4,-13.0,30.12,SSW,210,5.0,11.0,13,0.00,,,0.04,meteohub,2013-02-06 23:12:00,
2013-02-06 18:17:00,32.2,-13.2,30.12,SSW,212,6.0,8.0,13,0.00,,,0.04,meteohub,2013-02-06 23:17:00,
2013-02-06 18:22:00,31.8,-13.5,30.12,SSW,203,6.0,6.0,13,0.00,,,0.04,meteohub,2013-02-06 23:22:00,
2013-02-06 18:27:00,31.6,-13.5,30.12,SSW,201,5.0,6.0,13,0.00,,,0.04,meteohub,2013-02-06 23:27:00,
2013-02-06 18:32:00,31.5,-13.7,30.15,SSW,201,7.0,9.0,13,0.00,,,0.04,meteohub,2013-02-06 23:32:00,
2013-02-06 18:37:00,31.3,-13.9,30.15,SSW,200,8.0,10.0,13,0.00,,,0.04,meteohub,2013-02-06 23:37:00,
2013-02-06 18:42:00,31.3,-13.9,30.15,SSW,201,9.0,11.0,13,0.00,,,0.04,meteohub,2013-02-06 23:42:00,
2013-02-06 18:47:00,31.3,-13.9,30.15,SSW,208,6.0,11.0,13,0.00,,,0.04,meteohub,2013-02-06 23:47:00,
2013-02-06 18:52:00,31.3,-13.9,30.15,SSW,212,9.0,11.0,13,0.00,,,0.04,meteohub,2013-02-06 23:52:00,
2013-02-06 18:57:00,31.3,-13.9,30.15,SSW,198,6.0,11.0,13,0.00,,,0.04,meteohub,2013-02-06 23:57:00,
2013-02-06 19:02:00,31.1,-14.1,30.15,SSW,195,8.0,11.0,13,0.00,,,0.04,meteohub,2013-02-07 00:02:00,
2013-02-06 19:08:00,30.9,-14.3,30.15,SSW,199,8.0,9.0,13,0.00,,,0.04,meteohub,2013-02-07 00:08:00,
2013-02-06 19:13:00,30.7,-14.3,30.15,SSW,204,5.0,9.0,13,0.00,,,0.04,meteohub,2013-02-07 00:13:00,
2013-02-06 19:18:00,30.7,-14.3,30.15,South,188,6.0,9.0,13,0.00,,,0.04,meteohub,2013-02-07 00:18:00,
2013-02-06 19:23:00,30.4,-14.6,30.15,SSW,197,5.0,8.0,13,0.00,,,0.04,meteohub,2013-02-07 00:23:00,
2013-02-06 19:29:00,30.2,-14.8,30.18,SSW,213,6.0,8.0,13,0.00,,,0.04,meteohub,2013-02-07 00:29:00,
2013-02-06 19:34:00,30.2,-14.8,30.18,SSW,197,4.0,8.0,13,0.00,,,0.04,meteohub,2013-02-07 00:34:00,
2013-02-06 19:39:00,30.2,-14.8,30.18,SSW,194,5.0,7.0,13,0.00,,,0.04,meteohub,2013-02-07 00:39:00,
2013-02-06 19:44:00,29.8,-15.0,30.18,SSW,192,6.0,7.0,13,0.00,,,0.04,meteohub,2013-02-07 00:44:00,
2013-02-06 19:49:00,29.8,-15.0,30.18,SSW,193,6.0,6.0,13,0.00,,,0.04,meteohub,2013-02-07 00:49:00,
2013-02-06 19:55:00,29.8,-15.0,30.18,WSW,249,4.0,9.0,13,0.00,,,0.04,meteohub,2013-02-07 00:55:00,
2013-02-06 20:00:00,30.0,-15.0,30.18,SSW,207,6.0,9.0,13,0.00,,,0.04,meteohub,2013-02-07 01:00:00,
2013-02-06 20:05:00,30.0,-15.0,30.18,SSW,204,8.0,9.0,13,0.00,,,0.04,meteohub,2013-02-07 01:05:00,
2013-02-06 20:11:00,29.7,-15.2,30.18,SSW,204,6.0,10.0,13,0.00,,,0.04,meteohub,2013-02-07 01:11:00,
2013-02-06 20:16:00,29.7,-15.2,30.18,SSW,204,6.0,10.0,13,0.00,,,0.04,meteohub,2013-02-07 01:16:00,
2013-02-06 20:21:00,29.5,-15.3,30.18,SSW,205,8.0,9.0,13,0.00,,,0.04,meteohub,2013-02-07 01:21:00,
2013-02-06 20:26:00,29.8,-15.0,30.18,SSW,207,10.0,10.0,13,0.00,,,0.04,meteohub,2013-02-07 01:26:00,
2013-02-06 20:32:00,29.8,-15.0,30.21,SW,217,10.0,15.0,13,0.00,,,0.04,meteohub,2013-02-07 01:32:00,
2013-02-06 20:37:00,30.0,-16.4,30.21,SSW,207,11.0,15.0,12,0.00,,,0.04,meteohub,2013-02-07 01:37:00,
2013-02-06 20:42:00,30.0,-16.4,30.21,SSW,206,9.0,14.0,12,0.00,,,0.04,meteohub,2013-02-07 01:42:00,
2013-02-06 20:47:00,29.8,-16.6,30.21,SSW,208,9.0,14.0,12,0.00,,,0.04,meteohub,2013-02-07 01:47:00,
2013-02-06 20:52:00,29.8,-16.6,30.21,SSW,208,8.0,13.0,12,0.00,,,0.04,meteohub,2013-02-07 01:52:00,
2013-02-06 20:57:00,29.7,-16.8,30.21,SSW,213,8.0,13.0,12,0.00,,,0.04,meteohub,2013-02-07 01:57:00,
2013-02-06 21:02:00,29.8,-16.6,30.21,SSW,202,8.0,14.0,12,0.00,,,0.04,meteohub,2013-02-07 02:02:00,
2013-02-06 21:08:00,29.7,-16.8,30.21,SSW,208,8.0,14.0,12,0.00,,,0.04,meteohub,2013-02-07 02:08:00,
2013-02-06 21:13:00,29.7,-16.8,30.21,SSW,201,9.0,14.0,12,0.00,,,0.04,meteohub,2013-02-07 02:13:00,
2013-02-06 21:18:00,29.7,-16.8,30.21,SSW,200,6.0,12.0,12,0.00,,,0.04,meteohub,2013-02-07 02:18:00,
2013-02-06 21:23:00,29.5,-17.0,30.21,SSW,213,9.0,14.0,12,0.00,,,0.04,meteohub,2013-02-07 02:23:00,
2013-02-06 21:29:00,29.7,-16.8,30.21,SW,214,11.0,14.0,12,0.00,,,0.04,meteohub,2013-02-07 02:29:00,
2013-02-06 21:34:00,29.5,-17.0,30.21,SSW,201,9.0,14.0,12,0.00,,,0.04,meteohub,2013-02-07 02:34:00,
2013-02-06 21:39:00,29.5,-17.0,30.21,SW,220,10.0,14.0,12,0.00,,,0.04,meteohub,2013-02-07 02:39:00,
2013-02-06 21:44:00,29.5,-17.0,30.24,SSW,202,10.0,14.0,12,0.00,,,0.04,meteohub,2013-02-07 02:44:00,
2013-02-06 21:49:00,29.5,-17.0,30.24,SSW,196,5.0,14.0,12,0.00,,,0.04,meteohub,2013-02-07 02:49:00,
2013-02-06 21:55:00,29.5,-17.0,30.24,SSW,198,11.0,13.0,12,0.00,,,0.04,meteohub,2013-02-07 02:55:00,
2013-02-06 22:00:00,29.3,-17.1,30.24,SW,220,6.0,13.0,12,0.00,,,0.04,meteohub,2013-02-07 03:00:00,
2013-02-06 22:05:00,29.1,-17.1,30.24,SW,226,12.0,13.0,12,0.00,,,0.04,meteohub,2013-02-07 03:05:00,
2013-02-06 22:10:00,29.1,-17.1,30.24,SSW,206,8.0,13.0,12,0.00,,,0.04,meteohub,2013-02-07 03:10:00,
2013-02-06 22:15:00,28.9,-17.3,30.24,SW,217,5.0,13.0,12,0.00,,,0.04,meteohub,2013-02-07 03:15:00,
2013-02-06 22:21:00,28.9,-17.3,30.24,WSW,248,11.0,13.0,12,0.00,,,0.04,meteohub,2013-02-07 03:21:00,
2013-02-06 22:26:00,28.8,-17.5,30.24,WSW,239,8.0,13.0,12,0.00,,,0.04,meteohub,2013-02-07 03:26:00,
2013-02-06 22:31:00,28.6,-17.7,30.27,SSW,202,10.0,13.0,12,0.00,,,0.04,meteohub,2013-02-07 03:31:00,
2013-02-06 22:36:00,28.6,-17.7,30.27,SW,217,8.0,13.0,12,0.00,,,0.04,meteohub,2013-02-07 03:36:00,
2013-02-06 22:42:00,28.6,-17.7,30.27,SW,220,6.0,13.0,12,0.00,,,0.04,meteohub,2013-02-07 03:42:00,
2013-02-06 22:47:00,28.4,-17.9,30.27,SW,220,8.0,13.0,12,0.00,,,0.04,meteohub,2013-02-07 03:47:00,
2013-02-06 22:52:00,28.4,-17.9,30.27,SSW,208,8.0,13.0,12,0.00,,,0.04,meteohub,2013-02-07 03:52:00,
2013-02-06 22:57:00,28.4,-17.9,30.27,SSW,213,6.0,13.0,12,0.00,,,0.04,meteohub,2013-02-07 03:57:00,
2013-02-06 23:02:00,28.2,-17.9,30.27,WSW,258,10.0,13.0,12,0.00,,,0.04,meteohub,2013-02-07 04:02:00,
2013-02-06 23:07:00,28.0,-18.0,30.27,SW,222,6.0,13.0,12,0.00,,,0.04,meteohub,2013-02-07 04:07:00,
2013-02-06 23:12:00,27.9,-18.2,30.27,SW,219,8.0,15.0,12,0.00,,,0.04,meteohub,2013-02-07 04:12:00,
2013-02-06 23:17:00,27.9,-18.2,30.27,SSW,213,10.0,15.0,12,0.00,,,0.04,meteohub,2013-02-07 04:17:00,
2013-02-06 23:22:00,27.7,-18.4,30.27,SSW,203,9.0,15.0,12,0.00,,,0.04,meteohub,2013-02-07 04:22:00,
2013-02-06 23:27:00,27.9,-18.2,30.27,SW,216,10.0,15.0,12,0.00,,,0.04,meteohub,2013-02-07 04:27:00,
2013-02-06 23:32:00,27.9,-18.2,30.27,WSW,239,17.0,17.0,12,0.00,,,0.04,meteohub,2013-02-07 04:32:00,
2013-02-06 23:37:00,27.9,-18.2,30.27,SW,222,6.0,17.0,12,0.00,,,0.04,meteohub,2013-02-07 04:37:00,
2013-02-06 23:42:00,27.9,-18.2,30.27,SSW,206,11.0,17.0,12,0.00,,,0.04,meteohub,2013-02-07 04:42:00,
2013-02-06 23:47:00,27.7,-18.4,30.30,SW,225,8.0,17.0,12,0.00,,,0.04,meteohub,2013-02-07 04:47:00,
2013-02-06 23:52:00,27.5,-18.6,30.30,SW,220,9.0,13.0,12,0.00,,,0.04,meteohub,2013-02-07 04:52:00,
2013-02-06 23:57:00,27.7,-18.4,30.30,SSW,203,7.0,13.0,12,0.00,,,0.04,meteohub,2013-02-07 04:57:00,